createdAt,value
2022-11-30T00:02:05.287Z,31.57
2022-11-30T00:05:10.094Z,29.67
2022-11-30T00:08:12.998Z,24.90
2022-11-30T00:11:20.776Z,28.77
2022-11-30T00:14:23.686Z,28.83
2022-11-30T00:17:26.600Z,25.53
2022-11-30T00:20:30.824Z,26.53
2022-11-30T00:23:34.575Z,24.63
2022-11-30T00:26:37.464Z,25.87
2022-11-30T00:29:40.331Z,25.30
2022-11-30T00:32:43.232Z,26.37
2022-11-30T00:35:57.372Z,25.47
2022-11-30T00:39:00.274Z,24.37
2022-11-30T00:42:03.149Z,24.00
2022-11-30T00:45:06.934Z,18.97
2022-11-30T00:48:09.896Z,19.83
2022-11-30T00:51:14.360Z,19.20
2022-11-30T00:54:17.283Z,21.13
2022-11-30T00:57:20.145Z,21.40
2022-11-30T01:00:23.131Z,18.53
2022-11-30T01:03:26.124Z,21.53
2022-11-30T01:06:30.520Z,19.50
2022-11-30T01:09:33.419Z,17.43
2022-11-30T01:12:36.440Z,19.47
2022-11-30T01:15:41.995Z,17.53
2022-11-30T01:18:45.832Z,25.20
2022-11-30T01:21:50.056Z,19.97
2022-11-30T01:24:52.947Z,22.63
2022-11-30T01:27:55.838Z,22.17
2022-11-30T01:30:59.304Z,20.97
2022-11-30T01:34:02.408Z,22.80
2022-11-30T01:37:06.698Z,24.40
2022-11-30T01:40:11.448Z,23.33
2022-11-30T01:43:21.037Z,23.20
2022-11-30T01:46:31.449Z,21.57
2022-11-30T01:49:37.937Z,25.30
2022-11-30T01:52:46.451Z,26.80
2022-11-30T01:55:49.613Z,24.07
2022-11-30T01:58:52.520Z,27.73
2022-11-30T02:01:55.886Z,30.73
2022-11-30T02:04:58.907Z,29.47
2022-11-30T02:08:03.452Z,28.60
2022-11-30T02:11:11.995Z,28.17
2022-11-30T02:14:32.564Z,25.83
2022-11-30T02:17:45.041Z,32.27
2022-11-30T02:20:56.694Z,33.53
2022-11-30T02:24:30.020Z,30.10
2022-11-30T02:27:47.650Z,32.17
2022-11-30T02:30:55.029Z,26.73
2022-11-30T02:33:59.482Z,29.50
2022-11-30T02:37:03.103Z,31.13
2022-11-30T02:40:10.332Z,29.37
2022-11-30T02:43:13.612Z,29.47
2022-11-30T02:46:24.480Z,27.97
2022-11-30T02:49:33.857Z,24.87
2022-11-30T02:52:37.138Z,29.80
2022-11-30T02:55:40.033Z,34.13
2022-11-30T02:58:43.304Z,30.67
2022-11-30T03:01:47.610Z,32.37
2022-11-30T03:04:50.576Z,29.77
2022-11-30T03:07:53.508Z,30.07
2022-11-30T03:10:56.473Z,30.83
2022-11-30T03:13:59.511Z,28.97
2022-11-30T03:17:04.060Z,25.00
2022-11-30T03:20:08.354Z,35.03
2022-11-30T03:23:11.521Z,28.00
2022-11-30T03:26:14.570Z,29.80
2022-11-30T03:29:17.576Z,31.30
2022-11-30T03:32:21.828Z,26.87
2022-11-30T03:35:24.761Z,30.40
2022-11-30T03:38:27.672Z,29.37
2022-11-30T03:41:30.584Z,30.83
2022-11-30T03:44:33.562Z,31.17
2022-11-30T03:47:38.493Z,28.20
2022-11-30T03:50:42.118Z,25.67
2022-11-30T03:53:45.160Z,24.57
2022-11-30T03:56:48.158Z,27.30
2022-11-30T03:59:51.045Z,26.13
2022-11-30T04:02:55.301Z,22.63
2022-11-30T04:05:58.528Z,26.83
2022-11-30T04:09:01.654Z,23.60
2022-11-30T04:12:04.772Z,26.00
2022-11-30T04:15:08.801Z,24.93
2022-11-30T04:18:13.037Z,29.17
2022-11-30T04:21:15.925Z,22.50
2022-11-30T04:24:18.787Z,26.37
2022-11-30T04:27:21.678Z,29.50
2022-11-30T04:30:24.599Z,28.13
2022-11-30T04:33:29.098Z,27.87
2022-11-30T04:36:32.020Z,25.13
2022-11-30T04:39:35.532Z,28.10
2022-11-30T04:42:38.408Z,24.03
2022-11-30T04:45:41.712Z,26.83
2022-11-30T04:48:45.946Z,29.17
2022-11-30T04:51:48.844Z,24.07
2022-11-30T04:54:51.903Z,24.13
2022-11-30T04:57:54.783Z,25.60
2022-11-30T05:00:57.747Z,23.50
2022-11-30T05:04:01.996Z,24.20
2022-11-30T05:07:04.978Z,26.50
2022-11-30T05:10:09.803Z,22.73
2022-11-30T05:13:12.708Z,22.23
2022-11-30T05:16:15.759Z,20.83
2022-11-30T05:19:20.098Z,21.57
2022-11-30T05:22:23.009Z,23.10
2022-11-30T05:25:25.925Z,20.47
2022-11-30T05:28:28.880Z,19.40
2022-11-30T05:31:32.231Z,20.60
2022-11-30T05:34:49.700Z,20.87
2022-11-30T05:37:53.783Z,17.97
2022-11-30T05:41:01.220Z,16.23
2022-11-30T05:44:04.144Z,15.57
2022-11-30T05:47:07.162Z,18.63
2022-11-30T05:50:11.797Z,19.97
2022-11-30T05:53:14.689Z,17.03
2022-11-30T05:56:20.508Z,15.50
2022-11-30T05:59:23.998Z,17.70
2022-11-30T06:02:28.509Z,15.50
2022-11-30T06:05:36.249Z,15.13
2022-11-30T06:08:39.262Z,15.27
2022-11-30T06:11:42.176Z,15.70
2022-11-30T06:14:45.348Z,17.30
2022-11-30T06:17:48.445Z,18.00
2022-11-30T06:20:52.731Z,18.80
2022-11-30T06:23:55.632Z,22.17
2022-11-30T06:26:58.541Z,20.30
2022-11-30T06:30:01.578Z,17.60
2022-11-30T06:33:04.996Z,17.23
2022-11-30T06:36:10.070Z,18.70
2022-11-30T06:39:13.820Z,17.80
2022-11-30T06:42:16.762Z,15.10
2022-11-30T06:45:19.770Z,16.50
2022-11-30T06:48:23.058Z,17.40
2022-11-30T06:51:27.311Z,18.77
2022-11-30T06:54:30.216Z,17.47
2022-11-30T06:57:33.095Z,19.87
2022-11-30T07:00:36.549Z,16.07
2022-11-30T07:03:39.725Z,14.83
2022-11-30T07:06:43.965Z,15.77
2022-11-30T07:09:46.861Z,17.23
2022-11-30T07:12:49.872Z,16.90
2022-11-30T07:15:52.752Z,16.53
2022-11-30T07:18:55.646Z,15.63
2022-11-30T07:21:59.880Z,14.53
2022-11-30T07:25:20.026Z,13.80
2022-11-30T07:28:22.956Z,13.47
2022-11-30T07:31:27.939Z,14.17
2022-11-30T07:34:30.895Z,15.20
2022-11-30T07:37:35.196Z,19.57
2022-11-30T07:40:38.098Z,18.33
2022-11-30T07:43:41.558Z,16.50
2022-11-30T07:46:44.461Z,19.37
2022-11-30T07:49:47.367Z,20.53
2022-11-30T07:52:51.670Z,21.63
2022-11-30T07:55:56.979Z,24.60
2022-11-30T07:59:02.118Z,24.53
2022-11-30T08:02:05.139Z,21.50
2022-11-30T08:05:11.503Z,23.97
2022-11-30T08:08:15.723Z,23.10
2022-11-30T08:11:20.630Z,20.97
2022-11-30T08:14:23.512Z,21.93
2022-11-30T08:17:26.380Z,24.17
2022-11-30T08:20:29.730Z,23.63
2022-11-30T08:23:35.977Z,24.00
2022-11-30T08:26:38.906Z,22.77
2022-11-30T08:29:41.936Z,22.50
2022-11-30T08:32:44.791Z,23.50
2022-11-30T08:35:47.672Z,19.73
2022-11-30T08:38:51.940Z,21.13
2022-11-30T08:41:54.916Z,26.77
2022-11-30T08:44:57.819Z,22.67
2022-11-30T08:48:00.702Z,27.07
2022-11-30T08:51:05.435Z,26.03
2022-11-30T08:54:09.657Z,21.60
2022-11-30T08:57:12.633Z,18.87
2022-11-30T09:00:17.028Z,20.13
2022-11-30T09:03:20.137Z,21.63
2022-11-30T09:06:24.584Z,22.53
2022-11-30T09:09:29.023Z,21.10
2022-11-30T09:12:34.840Z,21.37
2022-11-30T09:15:38.043Z,21.13
2022-11-30T09:18:41.930Z,23.60
2022-11-30T09:21:51.290Z,22.63
2022-11-30T09:24:56.402Z,21.20
2022-11-30T09:27:59.260Z,23.30
2022-11-30T09:31:03.126Z,21.87
2022-11-30T09:34:06.087Z,20.43
2022-11-30T09:37:09.424Z,19.90
2022-11-30T09:40:18.215Z,20.80
2022-11-30T09:43:33.178Z,23.17
2022-11-30T09:46:41.412Z,19.60
2022-11-30T09:49:46.967Z,21.73
2022-11-30T09:52:53.121Z,20.23
2022-11-30T09:55:57.726Z,22.20
2022-11-30T09:59:05.796Z,21.57
2022-11-30T10:02:18.115Z,22.27
2022-11-30T10:05:23.249Z,19.00
2022-11-30T10:08:37.860Z,19.57
2022-11-30T10:11:52.375Z,19.60
2022-11-30T10:15:17.015Z,16.07
2022-11-30T10:18:27.309Z,17.83
2022-11-30T10:21:45.927Z,18.10
2022-11-30T10:25:10.176Z,14.30
2022-11-30T10:28:45.727Z,14.53
2022-11-30T10:31:44.337Z,16.37
2022-11-30T10:34:50.200Z,14.47
2022-11-30T10:37:54.871Z,14.03
2022-11-30T10:41:03.678Z,14.83
2022-11-30T10:44:14.916Z,13.07
2022-11-30T10:47:23.474Z,14.03
2022-11-30T10:50:30.557Z,13.70
2022-11-30T10:53:34.394Z,12.70
2022-11-30T10:56:37.535Z,14.37
2022-11-30T10:59:45.811Z,12.13
2022-11-30T11:02:50.324Z,15.10
2022-11-30T11:06:21.068Z,12.60
2022-11-30T11:09:28.398Z,12.23
2022-11-30T11:12:31.556Z,12.23
2022-11-30T11:15:36.439Z,11.83
2022-11-30T11:18:54.052Z,11.43
2022-11-30T11:21:57.286Z,10.03
2022-11-30T11:25:13.044Z,9.70
2022-11-30T11:28:20.189Z,8.37
2022-11-30T11:31:36.186Z,9.53
2022-11-30T11:34:39.251Z,8.47
2022-11-30T11:37:52.704Z,8.90
2022-11-30T11:40:59.446Z,8.50
2022-11-30T11:44:05.296Z,7.97
2022-11-30T11:47:25.298Z,13.40
2022-11-30T11:53:56.882Z,12.07
2022-11-30T11:57:00.303Z,13.47
2022-11-30T12:00:15.885Z,15.17
2022-11-30T12:03:29.896Z,17.17
2022-11-30T12:06:35.340Z,19.40
2022-11-30T12:09:46.060Z,17.43
2022-11-30T12:12:54.543Z,14.40
2022-11-30T12:16:08.526Z,15.53
2022-11-30T12:19:20.762Z,15.00
2022-11-30T12:22:56.923Z,15.73
2022-11-30T12:26:08.841Z,12.97
2022-11-30T12:29:23.270Z,14.53
2022-11-30T12:32:32.816Z,15.20
2022-11-30T12:35:43.907Z,13.63
2022-11-30T12:38:50.731Z,15.67
2022-11-30T12:41:59.994Z,14.47
2022-11-30T12:45:11.150Z,13.67
2022-11-30T12:48:27.241Z,13.03
2022-11-30T12:51:37.713Z,12.97
2022-11-30T12:54:48.047Z,11.63
2022-11-30T12:58:00.611Z,12.73
2022-11-30T13:01:17.102Z,11.87
2022-11-30T13:04:25.525Z,12.53
2022-11-30T13:07:35.285Z,11.27
2022-11-30T13:10:44.100Z,10.97
2022-11-30T13:13:52.125Z,11.47
2022-11-30T13:17:02.106Z,11.33
2022-11-30T13:20:12.047Z,10.80
2022-11-30T13:23:26.860Z,12.13
2022-11-30T13:26:35.304Z,11.67
2022-11-30T13:29:56.874Z,11.27
2022-11-30T13:33:40.975Z,13.50
2022-11-30T13:36:45.663Z,10.97
2022-11-30T13:39:51.734Z,11.00
2022-11-30T13:42:56.924Z,11.50
2022-11-30T13:46:08.282Z,11.10
2022-11-30T13:49:20.040Z,11.73
2022-11-30T13:53:09.341Z,12.40
2022-11-30T13:56:35.968Z,11.27
2022-11-30T13:59:47.098Z,10.17
2022-11-30T14:02:54.867Z,11.20
2022-11-30T14:05:59.064Z,11.07
2022-11-30T14:09:02.017Z,11.53
2022-11-30T14:12:52.610Z,10.47
2022-11-30T14:16:00.070Z,18.43
2022-11-30T14:19:07.340Z,10.57
2022-11-30T14:22:12.783Z,10.67
2022-11-30T14:25:18.249Z,11.73
2022-11-30T14:28:25.225Z,12.03
2022-11-30T14:31:34.189Z,12.37
2022-11-30T14:34:40.258Z,12.73
2022-11-30T14:37:46.144Z,11.57
2022-11-30T14:40:53.547Z,12.53
2022-11-30T14:44:05.128Z,16.90
2022-11-30T14:47:22.568Z,16.03
2022-11-30T14:50:27.222Z,21.67
2022-11-30T14:53:37.402Z,20.33
2022-11-30T14:56:46.792Z,19.97
2022-11-30T14:59:51.901Z,19.03
2022-11-30T15:02:56.444Z,20.03
2022-11-30T15:06:01.463Z,19.87
2022-11-30T15:09:04.856Z,19.33
2022-11-30T15:12:08.259Z,18.73
2022-11-30T15:15:18.985Z,20.73
2022-11-30T15:18:24.564Z,20.17
2022-11-30T15:21:29.378Z,23.73
2022-11-30T15:24:32.324Z,19.87
2022-11-30T15:27:35.502Z,20.93
2022-11-30T15:30:41.860Z,20.80
2022-11-30T15:33:49.052Z,19.90
2022-11-30T15:36:55.540Z,17.87
2022-11-30T15:40:00.579Z,21.10
2022-11-30T15:43:03.932Z,19.10
2022-11-30T15:46:07.816Z,20.07
2022-11-30T15:49:24.440Z,19.57
2022-11-30T15:52:28.290Z,20.73
2022-11-30T15:55:44.067Z,21.93
2022-11-30T15:59:02.559Z,21.33
2022-11-30T16:02:14.209Z,20.30
2022-11-30T16:05:26.826Z,27.80
2022-11-30T16:08:29.991Z,24.50
2022-11-30T16:11:35.722Z,26.53
2022-11-30T16:14:38.628Z,25.07
2022-11-30T16:17:41.491Z,18.97
2022-11-30T16:20:47.464Z,22.23
2022-11-30T16:23:50.393Z,20.50
2022-11-30T16:26:53.390Z,22.77
2022-11-30T16:29:56.545Z,20.00
2022-11-30T16:32:59.522Z,20.77
2022-11-30T16:36:08.288Z,22.47
2022-11-30T16:39:13.315Z,21.00
2022-11-30T16:42:16.556Z,21.27
2022-11-30T16:45:22.063Z,21.23
2022-11-30T16:48:25.063Z,21.40
2022-11-30T16:51:31.641Z,19.67
2022-11-30T16:54:34.528Z,19.43
2022-11-30T16:57:37.415Z,19.17
2022-11-30T17:00:41.714Z,22.40
2022-11-30T17:03:49.606Z,23.53
2022-11-30T17:07:00.567Z,24.40
2022-11-30T17:10:05.992Z,22.90
2022-11-30T17:13:13.534Z,21.47
2022-11-30T17:16:16.450Z,19.00
2022-11-30T17:19:19.532Z,17.60
2022-11-30T17:22:23.880Z,20.13
2022-11-30T17:25:26.845Z,19.10
2022-11-30T17:28:29.796Z,20.30
2022-11-30T17:31:33.027Z,20.17
2022-11-30T17:34:36.016Z,20.07
2022-11-30T17:37:40.284Z,18.43
2022-11-30T17:40:43.202Z,20.23
2022-11-30T17:43:46.275Z,19.63
2022-11-30T17:46:49.184Z,19.40
2022-11-30T17:49:52.169Z,22.13
2022-11-30T17:52:56.400Z,19.63
2022-11-30T17:56:05.910Z,18.73
2022-11-30T17:59:09.259Z,20.53
2022-11-30T18:02:12.799Z,16.70
2022-11-30T18:05:16.111Z,19.77
2022-11-30T18:08:20.371Z,18.47
2022-11-30T18:11:26.235Z,19.10
2022-11-30T18:14:29.123Z,19.50
2022-11-30T18:17:32.241Z,22.73
2022-11-30T18:20:35.307Z,22.00
2022-11-30T18:23:39.896Z,19.17
2022-11-30T18:26:42.779Z,19.87
2022-11-30T18:29:45.666Z,19.67
2022-11-30T18:32:48.599Z,20.60
2022-11-30T18:35:51.650Z,20.20
2022-11-30T18:38:56.237Z,19.23
2022-11-30T18:41:59.359Z,23.43
2022-11-30T18:45:02.234Z,23.20
2022-11-30T18:48:06.379Z,23.73
2022-11-30T18:51:13.719Z,27.53
2022-11-30T18:54:18.930Z,24.23
2022-11-30T18:57:21.832Z,22.07
2022-11-30T19:00:25.281Z,23.70
2022-11-30T19:03:28.174Z,24.67
2022-11-30T19:06:32.731Z,24.13
2022-11-30T19:09:37.087Z,24.97
2022-11-30T19:12:39.979Z,26.33
2022-11-30T19:15:43.328Z,26.30
2022-11-30T19:18:46.238Z,20.00
2022-11-30T19:21:49.165Z,21.83
2022-11-30T19:24:53.390Z,29.63
2022-11-30T19:27:56.356Z,24.30
2022-11-30T19:31:00.416Z,25.53
2022-11-30T19:34:11.971Z,23.27
2022-11-30T19:37:15.959Z,26.00
2022-11-30T19:40:20.275Z,26.43
2022-11-30T19:43:23.271Z,24.80
2022-11-30T19:46:26.813Z,35.63
2022-11-30T19:49:29.761Z,25.87
2022-11-30T19:52:32.985Z,24.37
2022-11-30T19:55:39.393Z,28.53
2022-11-30T19:58:42.572Z,26.77
2022-11-30T20:01:45.573Z,23.77
2022-11-30T20:04:48.959Z,26.30
2022-11-30T20:07:52.130Z,27.77
2022-11-30T20:10:56.507Z,28.27
2022-11-30T20:14:00.231Z,28.73
2022-11-30T20:17:03.152Z,29.87
2022-11-30T20:20:07.187Z,26.97
2022-11-30T20:23:10.089Z,24.97
2022-11-30T20:26:16.050Z,25.97
2022-11-30T20:29:19.603Z,23.47
2022-11-30T20:32:22.940Z,24.10
2022-11-30T20:35:25.828Z,30.47
2022-11-30T20:38:29.364Z,34.17
2022-11-30T20:41:33.949Z,30.77
2022-11-30T20:44:36.916Z,28.13
2022-11-30T20:47:39.858Z,26.30
2022-11-30T20:50:51.375Z,25.27
2022-11-30T20:54:07.741Z,31.17
2022-11-30T20:57:12.023Z,27.03
2022-11-30T21:00:16.061Z,28.53
2022-11-30T21:03:18.972Z,31.13
2022-11-30T21:06:21.939Z,26.63
2022-11-30T21:09:24.849Z,25.70
2022-11-30T21:12:29.057Z,28.13
2022-11-30T21:15:32.013Z,27.90
2022-11-30T21:18:35.253Z,28.53
2022-11-30T21:21:38.533Z,29.03
2022-11-30T21:24:41.451Z,30.23
2022-11-30T21:27:45.699Z,29.10
2022-11-30T21:30:48.721Z,29.57
2022-11-30T21:33:53.556Z,30.73
2022-11-30T21:36:56.771Z,31.67
2022-11-30T21:39:59.702Z,31.00
2022-11-30T21:43:04.026Z,33.53
2022-11-30T21:46:09.164Z,31.27
2022-11-30T21:49:12.406Z,26.23
2022-11-30T21:52:15.295Z,29.53
2022-11-30T21:55:18.356Z,31.00
2022-11-30T21:58:23.397Z,27.33
2022-11-30T22:01:28.753Z,29.77
2022-11-30T22:04:31.716Z,32.57
2022-11-30T22:07:34.800Z,29.97
2022-11-30T22:10:37.796Z,32.47
2022-11-30T22:13:42.875Z,31.17
2022-11-30T22:16:46.317Z,32.10
2022-11-30T22:19:49.419Z,34.40
2022-11-30T22:22:52.516Z,28.90
2022-11-30T22:25:55.407Z,29.03
2022-11-30T22:29:01.611Z,28.03
2022-11-30T22:32:04.709Z,30.40
2022-11-30T22:35:08.579Z,31.20
2022-11-30T22:38:13.312Z,30.23
2022-11-30T22:41:18.340Z,32.03
2022-11-30T22:44:22.643Z,30.10
2022-11-30T22:47:25.685Z,28.93
2022-11-30T22:50:28.915Z,28.33
2022-11-30T22:53:31.973Z,31.53
2022-11-30T22:56:36.796Z,27.80
2022-11-30T22:59:41.057Z,32.53
2022-11-30T23:02:43.956Z,29.57
2022-11-30T23:05:46.853Z,31.53
2022-11-30T23:08:51.799Z,29.63
2022-11-30T23:11:54.690Z,35.07
2022-11-30T23:14:58.907Z,30.80
2022-11-30T23:18:01.813Z,29.67
2022-11-30T23:21:07.824Z,30.23
2022-11-30T23:24:14.866Z,28.63
2022-11-30T23:27:17.751Z,33.97
2022-11-30T23:30:22.084Z,34.37
2022-11-30T23:33:24.976Z,27.70
2022-11-30T23:36:27.984Z,33.07
2022-11-30T23:39:30.858Z,36.13
2022-11-30T23:42:33.776Z,33.37
2022-11-30T23:45:38.063Z,36.03
2022-11-30T23:48:41.764Z,31.57
2022-11-30T23:51:44.696Z,34.77
2022-11-30T23:54:47.589Z,33.90
2022-11-30T23:57:50.481Z,32.37
